Date,TemperatureHighF,TemperatureAvgF,TemperatureLowF,DewpointHighF,DewpointAvgF,DewpointLowF,HumidityHigh,HumidityAvg,HumidityLow,PressureMaxIn,PressureMinIn,WindSpeedMaxMPH,WindSpeedAvgMPH,GustSpeedMaxMPH,PrecipitationSumIn
2013-1-1,50.4,45.9,41.8,44.7,36.0,24.6,81,69,47,30.12,29.96,14,2,14,0.29
2013-1-2,49.5,45.1,39.8,43.8,37.8,32.9,83,76,61,30.21,29.93,8,1,8,0.21
2013-1-3,45.9,39.8,29.0,34.4,31.9,22.4,80,73,58,30.28,30.15,8,1,8,0.00
2013-1-4,49.9,36.9,25.2,26.1,21.2,17.4,83,56,32,30.33,30.21,16,3,16,0.00
2013-1-5,48.6,36.8,26.5,30.6,22.0,17.1,71,56,37,30.41,30.26,9,1,9,0.00
2013-1-6,51.3,42.0,35.6,35.8,31.6,25.1,80,67,54,30.27,30.07,9,2,9,0.00
2013-1-7,52.7,39.4,29.3,31.7,26.9,21.2,77,62,42,30.45,30.20,8,2,8,0.00
2013-1-8,55.1,40.7,27.4,38.0,30.4,20.7,81,68,44,30.48,30.38,4,1,6,0.00
2013-1-9,67.7,50.5,35.1,47.5,39.2,28.3,80,66,47,30.47,30.37,12,1,12,0.00
2013-1-10,51.1,50.4,49.3,42.9,42.0,41.0,75,73,71,30.45,30.43,2,0,2,0.00
2013-1-12,73.1,64.2,52.9,60.6,55.5,47.6,83,74,64,30.19,30.12,7,1,7,0.00
2013-1-13,75.2,62.3,52.9,58.5,52.7,47.2,83,72,53,30.17,30.07,20,2,20,0.00
2013-1-14,71.3,64.2,58.7,59.8,55.3,50.8,77,73,65,30.17,30.10,13,1,13,0.00
2013-1-15,63.7,48.0,44.8,56.0,41.5,38.3,82,78,73,30.24,30.07,12,2,12,0.01
2013-1-16,48.8,45.5,43.2,44.1,40.5,37.7,85,83,81,30.09,29.99,8,1,8,0.14
2013-1-17,49.9,46.0,32.9,45.6,41.3,28.1,86,84,80,30.17,29.88,15,2,15,0.96
2013-1-18,45.0,35.0,25.6,30.4,25.7,19.5,87,70,43,30.54,30.15,15,2,15,0.06
2013-1-19,53.1,36.3,22.7,31.2,24.5,16.8,85,65,36,30.51,30.17,13,1,13,0.00
2013-1-20,64.4,48.3,38.2,33.8,29.1,24.5,67,49,28,30.17,30.00,18,4,18,0.00
2013-1-21,59.2,43.6,27.5,32.1,24.5,15.0,78,50,30,30.10,29.89,19,3,19,0.00
2013-1-22,41.2,32.4,24.8,16.6,5.4,-3.0,48,33,18,30.30,29.98,17,4,22,0.00
2013-1-23,39.2,28.5,16.9,19.4,8.9,2.0,69,45,28,30.39,30.06,15,1,15,0.00
2013-1-24,38.9,31.0,23.9,21.1,10.2,-1.2,66,43,24,30.52,29.97,18,3,18,0.00
2013-1-25,29.2,24.4,21.6,23.0,11.7,2.9,80,59,40,30.54,30.14,8,1,8,0.00
2013-1-26,41.9,31.3,25.6,31.2,24.1,18.8,82,75,62,30.42,30.11,5,0,5,0.13
2013-1-27,41.8,32.1,22.3,30.2,23.5,18.0,88,72,49,30.61,30.41,6,1,6,0.04
2013-1-28,50.9,41.6,31.5,43.9,32.3,23.2,81,70,58,30.52,30.25,14,2,14,0.01
2013-1-29,72.9,57.2,43.6,54.4,46.9,37.6,81,69,51,30.25,30.09,18,3,18,0.00
2013-1-30,72.9,66.3,58.3,60.5,57.0,50.4,81,72,62,30.09,29.43,25,7,25,0.28
2013-1-31,61.0,45.9,33.1,52.8,26.7,16.8,78,49,29,30.04,29.51,29,9,29,0.10